Time;durP1;ratioP1;P1;durP2;ratioP2;P2;SDS_P1;SDS_P2;PMS_P1;PMS_P2;Temp;Humidity;BMP_temperature;BMP_pressure;BME280_temperature;BME280_humidity;BME280_pressure;Samples;Min_cycle;Max_cycle;Signal;HPM_P1;HPM_P2
2022/07/11 03:52:19;;;;;;;;;;;;;;;;;;;;;
2022/07/11 04:01:22;;;;;;;;;;;;;;;8.72;98.99;100235.03;5951777;24;19915;-89
2022/07/11 04:03:56;;;;;;;;;;;;;;;8.54;97.96;100236.41;6116641;22;19990;-92
2022/07/11 04:06:47;;;;;;;;;;;;;;;;;;;;;
2022/07/11 10:06:26;;;;;;;;;;;;;;;8.75;96.54;100218.22;6230120;22;19922;-92
2022/07/11 10:11:27;;;;;;;;;;;;;;;10.90;100.00;100225.38;6195694;22;20335;-90
2022/07/11 10:16:39;;;;;;;;;;;;;;;16.79;75.99;100201.75;6276961;22;19927;-90
2022/07/11 10:19:08;;;;;;;;;;;;;;;15.90;84.17;100196.41;6249820;22;19918;-90
2022/07/11 10:24:45;;;;;;;;;;;;;;;12.50;92.27;100213.59;6151578;23;19923;-88
2022/07/11 10:27:21;;;;;;;;;;;;;;;11.77;92.62;100212.25;6237804;22;19911;-87
2022/07/11 10:29:53;;;;;;;;;;;;;;;11.26;91.36;100209.84;6210629;23;19916;-87
2022/07/11 10:32:21;;;;;;;;;;;;;;;11.24;93.37;100211.69;6186609;23;19971;-87
2022/07/11 10:37:58;;;;;;;;;;;;;;;10.47;91.94;100206.59;6195998;23;19912;-87
2022/07/11 10:40:50;;;;;;;;;;;;;;;10.61;93.64;100218.47;6185855;23;19943;-87
2022/07/11 10:43:36;;;;;;;;;;;;;;;10.23;91.00;100213.59;6211652;23;19922;-87
2022/07/11 10:46:01;;;;;;;;;;;;;;;10.55;92.89;100206.34;6211761;23;19943;-87
2022/07/11 10:48:28;;;;;;;;;;;;;;;10.20;91.44;100205.75;6211931;23;19912;-87
2022/07/11 10:51:01;;;;;;;;;;;;;;;10.33;92.84;100207.09;6211872;23;19984;-87
2022/07/11 10:53:41;;;;;;;;;;;;;;;10.32;91.80;100197.44;6212289;23;19974;-87
2022/07/11 10:56:19;;;;;;;;;;;;;;;10.09;92.60;100199.97;6185514;23;19914;-87
2022/07/11 10:59:02;;;;;;;;;;;;;;;10.04;91.87;100193.97;6210031;23;20332;-87
2022/07/11 11:01:27;;;;;;;;;;;;;;;10.26;91.12;100192.31;6234725;22;19978;-87
2022/07/11 11:04:13;;;;;;;;;;;;;;;10.27;91.41;100188.72;6275244;22;20318;-87
2022/07/11 11:06:59;;;;;;;;;;;;;;;9.89;90.34;100188.28;6274755;22;19977;-87
2022/07/11 11:09:43;;;;;;;;;;;;;;;10.15;91.85;100197.97;6247756;22;19915;-88
2022/07/11 11:12:15;;;;;;;;;;;;;;;9.94;90.03;100207.50;6248874;22;19961;-86
2022/07/11 11:14:41;;;;;;;;;;;;;;;10.26;92.70;100207.31;6240617;23;20607;-87
2022/07/11 11:34:28;;;;;;;;;;;;;;;9.93;92.05;100204.91;6243887;22;20003;-86
2022/07/11 11:36:54;;;;;;;;;;;;;;;10.05;93.42;100196.56;6216762;23;19924;-86
2022/07/11 11:39:27;;;;;;;;;;;;;;;9.92;92.10;100193.44;6244150;23;19919;-86
2022/07/11 11:42:00;;;;;;;;;;;;;;;10.13;94.25;100191.88;6218554;23;20389;-87
2022/07/11 11:44:25;;;;;;;;;;;;;;;9.88;92.07;100189.19;6216502;23;19986;-86
2022/07/11 11:46:58;;;;;;;;;;;;;;;10.11;94.46;100184.88;6218220;23;20316;-86
2022/07/11 11:49:50;;;;;;;;;;;;;;;9.88;93.25;100186.53;6218200;23;19994;-86
2022/07/11 11:52:15;;;;;;;;;;;;;;;10.05;94.49;100182.44;6158184;23;20287;-86
2022/07/11 11:54:41;;;;;;;;;;;;;;;10.07;93.05;100180.59;6244026;23;19969;-86
2022/07/11 11:57:07;;;;;;;;;;;;;;;10.01;93.59;100181.69;6215332;23;19935;-85
2022/07/11 11:59:50;;;;;;;;;;;;;;;;;;;;;
2022/07/11 12:02:20;;;;;;;;;;;;;;;10.13;92.43;100169.81;6243288;23;20007;-85
2022/07/11 12:04:47;;;;;;;;;;;;;;;10.14;93.42;100171.53;6217084;23;19912;-84
2022/07/11 12:07:12;;;;;;;;;;;;;;;9.91;92.09;100169.69;6243490;23;20331;-86
2022/07/11 12:09:47;;;;;;;;;;;;;;;10.12;93.00;100173.38;6242395;23;19970;-84
2022/07/11 12:15:04;;;;;;;;;;;;;;;10.23;93.51;100171.22;6241351;23;19959;-86
2022/07/11 12:17:29;;;;;;;;;;;;;;;9.99;91.94;100170.31;6240036;23;20006;-85
2022/07/11 12:20:06;;;;;;;;;;;;;;;10.15;93.91;100173.28;6244650;23;19950;-85
2022/07/11 12:22:40;;;;;;;;;;;;;;;9.95;92.71;100172.16;6217703;23;19915;-85
2022/07/11 12:25:09;;;;;;;;;;;;;;;10.18;93.37;100173.19;6220326;23;19912;-85
2022/07/11 12:27:35;;;;;;;;;;;;;;;10.07;92.15;100172.66;6246107;23;20325;-86
2022/07/11 12:30:03;;;;;;;;;;;;;;;10.11;93.33;100163.69;6243977;23;19919;-85
2022/07/11 12:32:29;;;;;;;;;;;;;;;9.96;93.22;100157.16;6244354;23;19919;-85
2022/07/11 12:34:57;;;;;;;;;;;;;;;9.93;93.37;100158.13;6230986;22;19915;-85
2022/07/11 12:37:36;;;;;;;;;;;;;;;10.03;94.41;100158.66;6274531;22;20010;-85
2022/07/11 12:40:06;;;;;;;;;;;;;;;9.75;92.52;100162.28;6247896;22;19958;-86
2022/07/11 12:42:35;;;;;;;;;;;;;;;10.09;94.58;100160.25;6275053;22;19911;-86
2022/07/11 12:45:11;;;;;;;;;;;;;;;9.78;92.33;100158.63;6246788;22;19950;-86
2022/07/11 12:47:38;;;;;;;;;;;;;;;10.08;94.38;100148.78;6274962;22;19919;-85
2022/07/11 12:50:21;;;;;;;;;;;;;;;9.98;92.11;100153.53;6249981;22;20332;-86
2022/07/11 12:52:47;;;;;;;;;;;;;;;10.17;93.90;100144.97;6275458;22;19919;-85
2022/07/11 12:55:27;;;;;;;;;;;;;;;10.03;93.26;100131.34;6274954;22;20243;-85
2022/07/11 12:58:02;;;;;;;;;;;;;;;10.14;94.72;100145.06;6249349;22;19961;-85
2022/07/11 13:00:37;;;;;;;;;;;;;;;10.10;94.10;100144.31;6275154;22;19919;-85
2022/07/11 13:03:13;;;;;;;;;;;;;;;10.04;93.26;100143.66;6249258;22;19920;-86
2022/07/11 13:05:51;;;;;;;;;;;;;;;10.21;93.15;100146.59;6277283;22;19915;-86
2022/07/11 13:08:47;;;;;;;;;;;;;;;10.00;91.96;100135.84;6277142;22;19957;-86
2022/07/11 13:11:16;;;;;;;;;;;;;;;10.28;94.37;100140.13;6276227;22;19998;-84
2022/07/11 13:13:42;;;;;;;;;;;;;;;9.97;93.28;100143.88;6247450;22;20271;-85
2022/07/11 13:16:07;;;;;;;;;;;;;;;10.38;94.45;100139.84;6276429;22;19961;-84
2022/07/11 13:18:37;;;;;;;;;;;;;;;10.15;92.18;100138.88;6249083;22;20235;-85
2022/07/11 13:21:03;;;;;;;;;;;;;;;10.50;94.28;100142.06;6275919;22;19952;-85
2022/07/11 13:23:28;;;;;;;;;;;;;;;10.05;92.21;100138.31;6272836;22;19986;-84
2022/07/11 13:25:54;;;;;;;;;;;;;;;10.16;94.49;100132.63;6275779;22;19943;-86
2022/07/11 13:28:21;;;;;;;;;;;;;;;10.10;93.28;100135.50;6276574;22;19911;-84
2022/07/11 13:30:50;;;;;;;;;;;;;;;10.11;93.68;100139.88;6245463;22;19915;-85
2022/07/11 13:33:15;;;;;;;;;;;;;;;10.06;93.11;100141.81;6276410;22;19915;-85
2022/07/11 13:35:41;;;;;;;;;;;;;;;10.04;92.88;100125.16;6275641;22;19916;-85
2022/07/11 13:38:06;;;;;;;;;;;;;;;10.12;93.22;100139.81;6273530;22;19911;-86
2022/07/11 13:40:33;;;;;;;;;;;;;;;9.90;92.96;100129.13;6249261;22;19922;-85
2022/07/11 13:42:58;;;;;;;;;;;;;;;10.01;93.28;100134.03;6276256;22;19934;-84
2022/07/11 13:45:24;;;;;;;;;;;;;;;9.95;92.31;100139.53;6273333;22;19912;-85
2022/07/11 13:47:50;;;;;;;;;;;;;;;10.09;92.93;100136.44;6248207;22;19912;-85
2022/07/11 13:50:19;;;;;;;;;;;;;;;9.99;91.33;100126.16;6274986;22;19912;-85
2022/07/11 13:52:54;;;;;;;;;;;;;;;10.07;92.94;100132.94;6275280;22;19915;-85
2022/07/11 13:55:22;;;;;;;;;;;;;;;9.95;91.48;100135.09;6249257;22;20354;-85
2022/07/11 13:57:50;;;;;;;;;;;;;;;10.20;93.29;100136.91;6275183;22;19915;-85
2022/07/11 14:00:15;;;;;;;;;;;;;;;9.87;91.96;100129.22;6274305;22;19916;-87
2022/07/11 14:02:46;;;;;;;;;;;;;;;10.26;93.78;100134.03;6276625;22;19918;-86
2022/07/11 14:05:11;;;;;;;;;;;;;;;9.85;91.71;100139.00;6249590;22;20346;-86
2022/07/11 14:07:40;;;;;;;;;;;;;;;10.26;93.57;100133.16;6274552;22;19916;-85
2022/07/11 14:10:05;;;;;;;;;;;;;;;10.26;91.27;100131.41;6247067;22;19915;-85
2022/07/11 14:12:39;;;;;;;;;;;;;;;10.30;92.88;100127.69;6275658;22;19912;-86
2022/07/11 14:15:07;;;;;;;;;;;;;;;10.32;91.90;100123.25;6246037;22;19955;-86
2022/07/11 14:17:33;;;;;;;;;;;;;;;10.23;93.21;100128.84;6274327;22;19915;-85
2022/07/11 14:19:58;;;;;;;;;;;;;;;10.12;92.59;100126.59;6276185;22;19966;-85
2022/07/11 14:22:26;;;;;;;;;;;;;;;10.25;93.21;100124.34;6274872;22;19957;-86
2022/07/11 14:24:52;;;;;;;;;;;;;;;10.27;92.43;100119.88;6275548;22;19915;-85
2022/07/11 14:27:17;;;;;;;;;;;;;;;10.27;93.43;100133.09;6275547;22;19991;-86
2022/07/11 14:29:43;;;;;;;;;;;;;;;10.25;91.58;100126.16;6246422;22;20228;-85
2022/07/11 14:32:29;;;;;;;;;;;;;;;10.36;92.42;100127.50;6274778;22;20327;-85
2022/07/11 14:34:54;;;;;;;;;;;;;;;10.32;91.74;100122.34;6275234;22;19915;-86
2022/07/11 14:37:20;;;;;;;;;;;;;;;10.22;90.82;100124.47;6274914;22;20251;-87
2022/07/11 14:39:45;;;;;;;;;;;;;;;10.34;91.45;100124.06;6274837;22;19926;-86
2022/07/11 14:42:47;;;;;;;;;;;;;;;;;;;;;
2022/07/11 14:45:16;;;;;;;;;;;;;;;10.29;92.59;100117.16;6125266;22;19988;-90
2022/07/11 14:47:42;;;;;;;;;;;;;;;10.00;90.94;100112.00;6273964;22;20290;-85
2022/07/11 14:50:10;;;;;;;;;;;;;;;10.26;93.42;100117.25;6273650;22;19915;-85
2022/07/11 14:52:35;;;;;;;;;;;;;;;10.06;91.63;100110.91;6274103;22;19916;-86
2022/07/11 14:55:00;;;;;;;;;;;;;;;10.20;92.73;100118.38;6247765;22;19915;-85
2022/07/11 14:57:37;;;;;;;;;;;;;;;10.02;91.99;100119.91;6274346;22;20358;-86
2022/07/11 15:00:06;;;;;;;;;;;;;;;10.15;92.04;100121.19;6246295;22;19958;-85
2022/07/11 15:05:15;;;;;;;;;;;;;;;10.06;91.30;100124.16;6274917;22;20347;-85
2022/07/11 15:13:16;;;;;;;;;;;;;;;10.31;93.88;100120.63;6275802;22;20033;-86
2022/07/11 15:15:41;;;;;;;;;;;;;;;10.21;92.86;100120.13;6273317;22;20343;-85
2022/07/11 15:18:07;;;;;;;;;;;;;;;10.16;93.44;100120.28;6275448;22;19911;-85
2022/07/11 15:20:33;;;;;;;;;;;;;;;10.11;93.04;100121.34;6274929;22;19915;-85
2022/07/11 15:22:58;;;;;;;;;;;;;;;10.14;92.94;100123.88;6274304;22;19915;-86
2022/07/11 15:25:23;;;;;;;;;;;;;;;10.15;92.83;100117.69;6275532;22;20402;-86
2022/07/11 15:27:49;;;;;;;;;;;;;;;10.08;92.75;100124.09;6274542;22;19966;-85
2022/07/11 15:30:16;;;;;;;;;;;;;;;10.14;92.37;100119.44;6244964;22;19954;-86
2022/07/11 15:32:45;;;;;;;;;;;;;;;10.06;92.31;100126.78;6247448;22;20395;-86
2022/07/11 15:35:18;;;;;;;;;;;;;;;10.14;92.56;100118.59;6246700;22;19923;-85
2022/07/11 15:37:43;;;;;;;;;;;;;;;9.90;90.72;100115.88;6273963;22;19911;-85
2022/07/11 15:40:09;;;;;;;;;;;;;;;10.19;91.35;100116.63;6248297;22;19912;-85
2022/07/11 15:42:34;;;;;;;;;;;;;;;9.93;89.66;100118.41;6248169;22;19915;-85
2022/07/11 15:45:08;;;;;;;;;;;;;;;10.04;91.48;100117.19;6247683;22;19918;-85
2022/07/11 15:47:36;;;;;;;;;;;;;;;9.75;88.90;100121.72;6248519;22;19930;-85
2022/07/11 15:50:02;;;;;;;;;;;;;;;10.05;91.21;100109.19;6248497;22;20397;-85
2022/07/11 15:52:27;;;;;;;;;;;;;;;9.67;88.89;100110.50;6275491;22;19911;-86
2022/07/11 15:54:52;;;;;;;;;;;;;;;9.94;91.11;100112.22;6248684;22;19915;-85
2022/07/11 15:57:18;;;;;;;;;;;;;;;9.76;89.13;100116.34;6248236;22;20204;-87
2022/07/11 15:59:44;;;;;;;;;;;;;;;9.95;91.28;100115.72;6247499;22;19919;-85
2022/07/11 16:02:09;;;;;;;;;;;;;;;9.70;88.89;100119.22;6275548;22;19912;-86
2022/07/11 16:04:37;;;;;;;;;;;;;;;9.95;90.98;100119.22;6273559;22;19915;-86
2022/07/11 16:07:02;;;;;;;;;;;;;;;9.67;89.04;100123.72;6274226;22;19915;-87
2022/07/11 16:09:28;;;;;;;;;;;;;;;9.93;90.97;100113.13;6273546;22;20243;-86
2022/07/11 16:11:53;;;;;;;;;;;;;;;9.78;88.49;100118.94;6274979;22;19925;-86
2022/07/11 16:14:21;;;;;;;;;;;;;;;9.99;91.02;100110.28;6274001;22;19918;-86
2022/07/11 16:16:48;;;;;;;;;;;;;;;9.64;89.15;100112.34;6248339;22;19926;-86
2022/07/11 16:19:27;;;;;;;;;;;;;;;9.88;91.57;100109.78;6248587;22;19919;-88
2022/07/11 16:21:53;;;;;;;;;;;;;;;9.68;89.49;100117.53;6275677;22;19953;-86
2022/07/11 16:24:21;;;;;;;;;;;;;;;10.02;90.99;100119.00;6275031;22;19915;-87
2022/07/11 16:26:55;;;;;;;;;;;;;;;9.76;88.05;100112.84;6239628;22;20235;-86
2022/07/11 16:30:36;;;;;;;;;;;;;;;10.03;90.14;100110.16;6246653;22;19919;-85
2022/07/11 16:32:46;;;;;;;;;;;;;;;9.77;89.12;100114.59;6248874;22;20357;-86
2022/07/11 16:35:19;;;;;;;;;;;;;;;9.85;88.36;100106.38;6265282;22;19916;-86
2022/07/11 16:37:45;;;;;;;;;;;;;;;10.04;88.49;100111.91;6243804;23;20604;-87
2022/07/11 16:43:26;;;;;;;;;;;;;;;10.26;89.83;100104.03;6244634;23;19926;-86
2022/07/11 16:45:55;;;;;;;;;;;;;;;9.98;87.44;100115.63;6243481;23;19911;-87
2022/07/11 16:48:24;;;;;;;;;;;;;;;10.10;90.88;100109.91;6244708;23;20328;-87
2022/07/11 16:50:50;;;;;;;;;;;;;;;9.81;89.18;100111.78;6244493;23;19922;-86
2022/07/11 16:53:18;;;;;;;;;;;;;;;10.00;90.37;100117.31;6244603;23;19982;-86
2022/07/11 16:55:50;;;;;;;;;;;;;;;9.79;88.82;100123.31;6244645;23;19921;-86
2022/07/11 16:58:15;;;;;;;;;;;;;;;9.98;90.54;100123.56;6217464;23;19911;-86
2022/07/11 17:00:44;;;;;;;;;;;;;;;9.82;88.97;100121.44;6239780;23;19912;-86
2022/07/11 17:03:09;;;;;;;;;;;;;;;9.88;90.50;100120.38;6217664;23;19923;-86
2022/07/11 17:05:51;;;;;;;;;;;;;;;9.86;89.08;100124.88;6244659;23;19911;-92
2022/07/11 17:11:15;;;;;;;;;;;;;;;9.70;89.72;100132.47;6277019;22;19961;-86
2022/07/11 17:13:41;;;;;;;;;;;;;;;9.81;89.43;100126.78;6248706;22;19915;-85
2022/07/11 17:16:12;;;;;;;;;;;;;;;9.82;89.75;100125.88;6239574;22;20327;-85
2022/07/11 17:19:03;;;;;;;;;;;;;;;10.03;89.89;100129.56;6276681;22;19926;-86
2022/07/11 17:21:29;;;;;;;;;;;;;;;9.96;91.70;100128.06;6249167;22;19922;-86
2022/07/11 17:23:54;;;;;;;;;;;;;;;9.91;90.32;100128.22;6276754;22;19912;-86
2022/07/11 17:26:29;;;;;;;;;;;;;;;10.12;92.39;100137.16;6250188;22;20008;-86
2022/07/11 17:28:54;;;;;;;;;;;;;;;10.02;89.75;100133.13;6248502;22;19973;-86
2022/07/11 17:35:09;;;;;;;;;;;;;;;10.11;91.70;100135.44;6074880;23;19917;-86
2022/07/11 17:37:40;;;;;;;;;;;;;;;10.02;90.65;100137.53;6226440;22;19915;-86
2022/07/11 17:40:05;;;;;;;;;;;;;;;10.28;92.18;100139.28;6242125;23;20359;-85
2022/07/11 17:42:31;;;;;;;;;;;;;;;10.04;90.49;100139.22;6243169;23;19916;-86
2022/07/11 17:45:17;;;;;;;;;;;;;;;10.31;92.27;100147.13;6216381;23;19915;-86
2022/07/11 17:47:43;;;;;;;;;;;;;;;10.00;90.93;100145.53;6217758;23;19919;-86
2022/07/11 17:50:11;;;;;;;;;;;;;;;10.14;92.59;100140.63;6217803;23;19911;-86
2022/07/11 17:52:39;;;;;;;;;;;;;;;9.99;90.96;100135.88;6217773;23;19912;-86
2022/07/11 17:55:06;;;;;;;;;;;;;;;10.24;91.95;100138.50;6243143;23;19922;-87
2022/07/11 17:57:33;;;;;;;;;;;;;;;10.06;91.87;100144.47;6242427;23;20002;-86
2022/07/11 17:59:59;;;;;;;;;;;;;;;9.97;92.48;100149.19;6241238;23;19926;-86
2022/07/11 18:02:24;;;;;;;;;;;;;;;10.02;92.84;100150.78;6243117;23;19919;-86
2022/07/11 18:04:49;;;;;;;;;;;;;;;9.98;92.51;100145.59;6236103;22;19915;-86
2022/07/11 18:07:22;;;;;;;;;;;;;;;10.07;93.06;100146.19;6276316;22;19922;-86
2022/07/11 18:09:48;;;;;;;;;;;;;;;9.93;92.00;100141.38;6276512;22;19912;-86
2022/07/11 18:12:13;;;;;;;;;;;;;;;10.11;93.41;100148.66;6249531;22;19918;-86
2022/07/11 18:14:38;;;;;;;;;;;;;;;9.90;91.43;100147.66;6247822;22;19911;-85
2022/07/11 18:17:04;;;;;;;;;;;;;;;10.26;93.30;100149.94;6276446;22;20205;-86
2022/07/11 18:19:32;;;;;;;;;;;;;;;9.92;91.62;100150.25;6276450;22;19986;-86
2022/07/11 18:21:57;;;;;;;;;;;;;;;10.09;94.17;100147.03;6249273;22;19915;-86
2022/07/11 18:27:19;;;;;;;;;;;;;;;10.14;94.05;100145.91;6263877;22;19941;-87
2022/07/11 18:29:45;;;;;;;;;;;;;;;9.87;92.92;100152.19;6247785;22;19915;-86
2022/07/11 18:32:10;;;;;;;;;;;;;;;10.09;93.63;100152.31;6276239;22;20220;-87
2022/07/11 18:34:36;;;;;;;;;;;;;;;10.02;92.40;100150.78;6276694;22;20246;-86
2022/07/11 18:37:04;;;;;;;;;;;;;;;10.17;93.43;100160.84;6276163;22;19982;-86
2022/07/11 18:42:15;;;;;;;;;;;;;;;10.02;92.04;100156.97;6276491;22;19926;-86
2022/07/11 18:44:41;;;;;;;;;;;;;;;10.28;92.61;100153.38;6275054;22;20395;-86
2022/07/11 18:47:10;;;;;;;;;;;;;;;10.09;91.66;100158.47;6276381;22;19942;-86
2022/07/11 18:49:36;;;;;;;;;;;;;;;10.17;92.40;100156.41;6248672;22;19922;-86
2022/07/11 18:52:03;;;;;;;;;;;;;;;10.02;91.28;100161.38;6248977;22;19911;-86
2022/07/11 18:54:31;;;;;;;;;;;;;;;10.16;91.82;100157.34;6248845;22;19915;-86
2022/07/11 18:56:57;;;;;;;;;;;;;;;10.14;91.07;100167.09;6276002;22;20327;-86
2022/07/11 18:59:22;;;;;;;;;;;;;;;10.23;92.44;100165.94;6247076;22;19915;-86
2022/07/11 19:01:48;;;;;;;;;;;;;;;9.88;91.46;100165.38;6249051;22;19915;-86
2022/07/11 19:04:16;;;;;;;;;;;;;;;10.16;92.94;100161.75;6247984;22;19911;-86
2022/07/11 19:06:42;;;;;;;;;;;;;;;9.84;91.25;100166.38;6274806;22;19911;-85
2022/07/11 19:09:07;;;;;;;;;;;;;;;10.12;93.00;100165.44;6248367;22;19930;-86
2022/07/11 19:11:33;;;;;;;;;;;;;;;9.78;90.71;100174.50;6249063;22;19918;-86
2022/07/11 19:13:59;;;;;;;;;;;;;;;9.95;92.70;100174.81;6247532;22;19911;-86
2022/07/11 19:16:36;;;;;;;;;;;;;;;9.68;89.66;100173.97;6249026;22;19914;-86
2022/07/11 19:19:02;;;;;;;;;;;;;;;9.99;91.98;100179.09;6275775;22;20298;-86
2022/07/11 19:21:28;;;;;;;;;;;;;;;9.59;89.30;100179.59;6275666;22;19942;-86
2022/07/11 19:23:53;;;;;;;;;;;;;;;9.87;91.44;100179.50;6275708;22;19911;-86
2022/07/11 19:26:21;;;;;;;;;;;;;;;9.70;88.54;100181.84;6248891;22;19936;-86
2022/07/11 19:28:49;;;;;;;;;;;;;;;9.97;91.41;100188.88;6247935;22;19998;-86
2022/07/11 19:31:16;;;;;;;;;;;;;;;9.64;88.71;100181.13;6248484;22;19916;-86
2022/07/11 19:33:41;;;;;;;;;;;;;;;9.88;90.54;100191.84;6275310;22;19997;-86
2022/07/11 19:36:07;;;;;;;;;;;;;;;9.59;88.43;100193.66;6247674;22;20401;-86
2022/07/11 19:38:33;;;;;;;;;;;;;;;9.97;90.55;100204.78;6248484;22;19994;-86
2022/07/11 19:41:01;;;;;;;;;;;;;;;9.58;88.03;100206.94;6275378;22;19919;-86
2022/07/11 19:43:27;;;;;;;;;;;;;;;9.95;90.75;100211.88;6248778;22;20256;-86
2022/07/11 19:45:53;;;;;;;;;;;;;;;10.00;88.91;100207.31;6274084;22;19941;-86
2022/07/11 19:48:18;;;;;;;;;;;;;;;10.08;90.76;100208.81;6275901;22;19915;-86
2022/07/11 19:50:44;;;;;;;;;;;;;;;9.93;89.01;100212.84;6275907;22;19915;-85
2022/07/11 19:53:09;;;;;;;;;;;;;;;10.06;91.46;100210.66;6248221;22;19916;-86
2022/07/11 19:58:19;;;;;;;;;;;;;;;9.95;91.65;100225.09;6275642;22;19919;-86
2022/07/11 20:00:44;;;;;;;;;;;;;;;9.73;88.98;100229.38;6274587;22;20249;-86
2022/07/11 20:03:10;;;;;;;;;;;;;;;9.90;91.30;100227.06;6275410;22;19969;-86
2022/07/11 20:05:36;;;;;;;;;;;;;;;9.57;89.19;100229.91;6248357;22;19981;-86
2022/07/11 20:08:01;;;;;;;;;;;;;;;9.91;91.49;100223.50;6275383;22;20002;-86
2022/07/11 20:10:29;;;;;;;;;;;;;;;9.71;89.10;100232.06;6275496;22;19947;-86
2022/07/11 20:12:57;;;;;;;;;;;;;;;9.88;91.23;100247.41;6248536;22;20251;-86
2022/07/11 20:15:22;;;;;;;;;;;;;;;9.60;89.11;100232.41;6274412;22;19947;-86
2022/07/11 20:17:50;;;;;;;;;;;;;;;9.89;91.97;100243.88;6275383;22;19914;-86
2022/07/11 20:20:16;;;;;;;;;;;;;;;9.61;89.33;100247.38;6248969;22;20326;-86
2022/07/11 20:22:44;;;;;;;;;;;;;;;9.83;91.40;100244.06;6248438;22;19911;-86
2022/07/11 20:25:10;;;;;;;;;;;;;;;9.84;90.02;100245.78;6248155;22;19994;-86
2022/07/11 20:27:36;;;;;;;;;;;;;;;9.87;91.42;100242.19;6275418;22;19947;-86
2022/07/11 20:30:03;;;;;;;;;;;;;;;9.77;90.29;100241.63;6247218;22;19981;-86
2022/07/11 20:32:29;;;;;;;;;;;;;;;9.82;91.71;100245.81;6275167;22;19922;-86
2022/07/11 20:34:54;;;;;;;;;;;;;;;9.75;90.58;100251.38;6275438;22;19911;-86
2022/07/11 20:37:19;;;;;;;;;;;;;;;9.83;91.99;100257.28;6248055;22;19915;-85
2022/07/11 20:39:45;;;;;;;;;;;;;;;9.79;91.60;100253.00;6248228;22;19916;-86
2022/07/11 20:42:11;;;;;;;;;;;;;;;9.81;91.98;100254.69;6275643;22;19911;-86
2022/07/11 20:44:39;;;;;;;;;;;;;;;9.84;91.40;100247.56;6275368;22;19931;-86
2022/07/11 20:47:12;;;;;;;;;;;;;;;9.77;91.26;100257.50;6250360;22;20346;-86
2022/07/11 20:49:42;;;;;;;;;;;;;;;9.84;91.97;100253.72;6287115;22;20681;-86
2022/07/11 20:52:07;;;;;;;;;;;;;;;9.70;90.81;100248.00;6250295;22;19982;-86
2022/07/11 20:54:33;;;;;;;;;;;;;;;9.88;92.80;100250.06;6277211;22;19986;-86
2022/07/11 20:56:58;;;;;;;;;;;;;;;9.55;91.63;100254.66;6277253;22;19918;-86
2022/07/11 20:59:25;;;;;;;;;;;;;;;9.85;93.25;100250.16;6275884;22;19916;-86
2022/07/11 21:01:51;;;;;;;;;;;;;;;9.60;91.55;100258.00;6250329;22;19912;-86
2022/07/11 21:04:18;;;;;;;;;;;;;;;9.90;94.14;100257.97;6249880;22;19916;-85
2022/07/11 21:06:44;;;;;;;;;;;;;;;9.69;92.55;100263.03;6250297;22;20282;-87
2022/07/11 21:09:09;;;;;;;;;;;;;;;10.00;94.79;100256.72;6276800;22;19915;-86
2022/07/11 21:11:38;;;;;;;;;;;;;;;9.86;92.86;100262.50;6277347;22;19919;-86
2022/07/11 21:14:06;;;;;;;;;;;;;;;10.08;95.07;100267.06;6275504;22;19911;-86
2022/07/11 21:16:32;;;;;;;;;;;;;;;9.89;92.84;100259.75;6212872;23;20328;-86
2022/07/11 21:18:57;;;;;;;;;;;;;;;9.95;94.19;100267.47;6188038;23;19919;-85
2022/07/11 21:21:23;;;;;;;;;;;;;;;9.78;94.16;100269.78;6213241;23;20316;-85
2022/07/11 21:23:50;;;;;;;;;;;;;;;9.99;95.02;100268.25;6188024;23;19918;-86
2022/07/11 21:26:16;;;;;;;;;;;;;;;9.93;94.24;100269.31;6213127;23;20359;-86
2022/07/11 21:28:41;;;;;;;;;;;;;;;9.92;94.72;100272.00;6211617;23;19912;-85
2022/07/11 21:31:07;;;;;;;;;;;;;;;9.96;94.89;100266.56;6212228;23;20295;-86
2022/07/11 21:33:34;;;;;;;;;;;;;;;9.98;94.43;100277.09;6212189;23;19915;-85
2022/07/11 21:35:59;;;;;;;;;;;;;;;10.01;95.06;100277.00;6212260;23;19912;-86
2022/07/11 21:38:25;;;;;;;;;;;;;;;9.93;93.71;100282.53;6213114;23;19944;-86
2022/07/11 21:40:50;;;;;;;;;;;;;;;10.18;94.58;100281.75;6238557;22;19915;-86
2022/07/11 21:43:15;;;;;;;;;;;;;;;9.89;93.08;100280.03;6249757;22;19911;-85
2022/07/11 21:45:40;;;;;;;;;;;;;;;10.14;94.61;100283.59;6275294;22;20290;-86
2022/07/11 21:48:06;;;;;;;;;;;;;;;10.14;92.77;100288.06;6276669;22;19919;-86
2022/07/11 21:50:33;;;;;;;;;;;;;;;10.16;94.58;100289.75;6249754;22;19915;-86
2022/07/11 21:52:58;;;;;;;;;;;;;;;9.98;92.64;100288.53;6249570;22;19916;-86
2022/07/11 21:55:23;;;;;;;;;;;;;;;10.17;94.30;100287.94;6276132;22;20241;-86
2022/07/11 21:57:49;;;;;;;;;;;;;;;9.88;93.08;100291.56;6276504;22;19915;-85
2022/07/11 22:00:14;;;;;;;;;;;;;;;10.15;95.21;100292.44;6274977;22;19915;-85
2022/07/11 22:02:41;;;;;;;;;;;;;;;9.89;92.97;100288.88;6249523;22;19919;-86
2022/07/11 22:05:06;;;;;;;;;;;;;;;10.14;94.57;100288.06;6276706;22;19943;-86
2022/07/11 22:07:32;;;;;;;;;;;;;;;9.88;92.74;100296.84;6244132;23;19916;-86
2022/07/11 22:09:58;;;;;;;;;;;;;;;9.94;93.77;100300.16;6246185;22;19915;-86
2022/07/11 22:12:23;;;;;;;;;;;;;;;9.82;92.76;100292.59;6243637;23;19942;-86
2022/07/11 22:14:48;;;;;;;;;;;;;;;9.79;93.06;100298.00;6242762;23;19939;-86
2022/07/11 22:17:14;;;;;;;;;;;;;;;9.81;92.11;100299.69;6245745;23;19912;-86
2022/07/11 22:19:39;;;;;;;;;;;;;;;9.90;92.51;100297.66;6245648;23;20642;-86
2022/07/11 22:22:04;;;;;;;;;;;;;;;9.89;92.29;100299.44;6245769;23;19911;-85
2022/07/11 22:24:29;;;;;;;;;;;;;;;9.78;92.16;100304.19;6243905;23;19937;-85
2022/07/11 22:26:55;;;;;;;;;;;;;;;9.95;92.10;100301.88;6244539;23;20315;-85
2022/07/11 22:29:21;;;;;;;;;;;;;;;9.69;91.67;100299.22;6243945;23;19923;-85
2022/07/11 22:31:46;;;;;;;;;;;;;;;9.80;92.78;100291.81;6245454;22;19912;-86
2022/07/11 22:34:12;;;;;;;;;;;;;;;9.75;91.87;100299.03;6219133;23;20018;-86
2022/07/11 22:36:37;;;;;;;;;;;;;;;9.96;93.19;100290.38;6245331;23;19926;-85
2022/07/11 22:39:02;;;;;;;;;;;;;;;9.68;91.01;100298.31;6244194;23;19915;-86
2022/07/11 22:41:27;;;;;;;;;;;;;;;10.11;93.24;100296.09;6245263;23;20342;-86
2022/07/11 22:43:53;;;;;;;;;;;;;;;9.85;90.96;100305.75;6244006;22;19915;-86
2022/07/11 22:46:18;;;;;;;;;;;;;;;10.05;93.07;100297.19;6245434;23;19919;-86
2022/07/11 22:48:43;;;;;;;;;;;;;;;9.81;91.26;100298.81;6245341;23;19919;-86
2022/07/11 22:51:09;;;;;;;;;;;;;;;10.03;92.81;100300.78;6217331;23;19986;-86
2022/07/11 22:53:34;;;;;;;;;;;;;;;9.91;89.96;100297.63;6245586;22;19911;-86
2022/07/11 22:55:59;;;;;;;;;;;;;;;10.21;92.20;100294.91;6243855;23;19936;-86
2022/07/11 22:58:25;;;;;;;;;;;;;;;9.99;89.72;100290.28;6243637;23;19919;-85
2022/07/11 23:00:50;;;;;;;;;;;;;;;10.23;92.31;100293.03;6243782;22;19911;-85
2022/07/11 23:03:18;;;;;;;;;;;;;;;9.94;90.09;100300.16;6244083;23;19919;-85
2022/07/11 23:05:43;;;;;;;;;;;;;;;10.19;92.23;100299.34;6245374;22;19916;-85
2022/07/11 23:08:09;;;;;;;;;;;;;;;10.00;90.27;100299.09;6258011;22;19980;-85
